Time;durP1;ratioP1;P1;durP2;ratioP2;P2;SDS_P1;SDS_P2;PMS_P1;PMS_P2;Temp;Humidity;BMP_temperature;BMP_pressure;BME280_temperature;BME280_humidity;BME280_pressure;Samples;Min_cycle;Max_cycle;Signal;HPM_P1;HPM_P2
2021/10/18 00:00:39;;;;;;;1.77;1.67;;;;;;;;;;5071309;28;20048;-76
2021/10/18 00:03:05;;;;;;;3.80;3.63;;;;;;;;;;5071306;28;20413;-76
2021/10/18 00:05:30;;;;;;;2.25;1.92;;;;;;;;;;5070752;28;20029;-74
2021/10/18 00:07:55;;;;;;;1.63;1.48;;;;;;;;;;5053097;28;20033;-75
2021/10/18 00:10:21;;;;;;;3.10;1.85;;;;;;;;;;5071648;28;20032;-73
2021/10/18 00:12:47;;;;;;;3.35;1.38;;;;;;;;;;5070415;28;20028;-74
2021/10/18 00:15:16;;;;;;;1.90;1.60;;;;;;;;;;5052865;28;20028;-75
2021/10/18 00:17:42;;;;;;;1.30;1.30;;;;;;;;;;5070945;28;20070;-75
2021/10/18 00:20:09;;;;;;;1.73;1.63;;;;;;;;;;5070631;28;20067;-75
2021/10/18 00:22:35;;;;;;;4.00;3.80;;;;;;;;;;5052879;28;20036;-75
2021/10/18 00:25:00;;;;;;;1.80;1.50;;;;;;;;;;5070562;28;20024;-74
2021/10/18 00:27:26;;;;;;;2.97;2.78;;;;;;;;;;5070374;28;20704;-75
2021/10/18 00:29:51;;;;;;;1.48;1.38;;;;;;;;;;5070562;28;20040;-74
2021/10/18 00:32:16;;;;;;;1.67;1.58;;;;;;;;;;5070527;28;20029;-75
2021/10/18 00:34:42;;;;;;;2.03;1.92;;;;;;;;;;5069780;28;20052;-74
2021/10/18 00:37:07;;;;;;;3.40;1.92;;;;;;;;;;5070622;28;20036;-75
2021/10/18 00:39:33;;;;;;;2.35;2.25;;;;;;;;;;5070497;28;20557;-75
2021/10/18 00:41:58;;;;;;;4.22;1.60;;;;;;;;;;5069965;28;20039;-74
2021/10/18 00:44:24;;;;;;;2.10;1.90;;;;;;;;;;5070613;28;20572;-75
2021/10/18 00:46:49;;;;;;;1.75;1.65;;;;;;;;;;5070827;28;20029;-74
2021/10/18 00:49:15;;;;;;;1.90;1.80;;;;;;;;;;5070144;28;20826;-76
2021/10/18 00:51:40;;;;;;;2.00;1.90;;;;;;;;;;5070424;28;20048;-74
2021/10/18 00:54:05;;;;;;;3.78;1.90;;;;;;;;;;5070649;28;20060;-75
2021/10/18 00:56:31;;;;;;;1.60;1.60;;;;;;;;;;5070568;28;20032;-75
2021/10/18 00:59:00;;;;;;;4.85;2.70;;;;;;;;;;5069717;28;20500;-73
2021/10/18 01:01:25;;;;;;;1.92;1.77;;;;;;;;;;5070629;28;20086;-76
2021/10/18 01:03:51;;;;;;;1.58;1.48;;;;;;;;;;5070434;28;20037;-75
2021/10/18 01:06:17;;;;;;;3.45;2.08;;;;;;;;;;5070064;28;20123;-74
2021/10/18 01:08:42;;;;;;;2.00;1.90;;;;;;;;;;5070640;28;20454;-74
2021/10/18 01:11:08;;;;;;;3.17;2.97;;;;;;;;;;5070696;28;20459;-74
2021/10/18 01:13:34;;;;;;;1.85;1.42;;;;;;;;;;5069854;28;20109;-75
2021/10/18 01:16:05;;;;;;;2.78;2.03;;;;;;;;;;5070781;28;20036;-75
2021/10/18 01:18:31;;;;;;;2.35;1.60;;;;;;;;;;5070626;28;20033;-74
2021/10/18 01:20:56;;;;;;;3.22;1.90;;;;;;;;;;5073500;28;20493;-76
2021/10/18 01:23:22;;;;;;;3.08;1.55;;;;;;;;;;5074415;28;20036;-75
2021/10/18 01:25:47;;;;;;;1.67;1.48;;;;;;;;;;5089434;28;20041;-74
2021/10/18 01:28:13;;;;;;;3.00;1.88;;;;;;;;;;5091028;28;20042;-76
2021/10/18 01:30:39;;;;;;;4.82;1.95;;;;;;;;;;5093632;28;20032;-73
2021/10/18 01:33:04;;;;;;;3.25;2.00;;;;;;;;;;5076919;28;20048;-74
2021/10/18 01:35:30;;;;;;;1.77;1.48;;;;;;;;;;5075244;28;20033;-75
2021/10/18 01:37:55;;;;;;;3.20;1.77;;;;;;;;;;5074419;28;20036;-75
2021/10/18 01:40:22;;;;;;;1.83;1.73;;;;;;;;;;5073794;28;20108;-74
2021/10/18 01:42:48;;;;;;;3.10;2.90;;;;;;;;;;5072827;28;20036;-75
2021/10/18 01:45:16;;;;;;;1.98;1.88;;;;;;;;;;5073792;28;20123;-74
2021/10/18 01:47:42;;;;;;;4.32;2.30;;;;;;;;;;5055732;28;20037;-75
2021/10/18 01:50:09;;;;;;;3.47;2.08;;;;;;;;;;5073331;28;20036;-74
2021/10/18 01:52:35;;;;;;;3.15;2.95;;;;;;;;;;5055664;28;20409;-74
2021/10/18 01:55:00;;;;;;;3.55;1.77;;;;;;;;;;5073597;28;20024;-74
2021/10/18 01:57:25;;;;;;;5.13;2.05;;;;;;;;;;5055266;28;20051;-75
2021/10/18 01:59:51;;;;;;;2.03;1.60;;;;;;;;;;5073353;28;20549;-76
2021/10/18 02:02:16;;;;;;;1.73;1.63;;;;;;;;;;5073618;28;20040;-75
2021/10/18 02:04:41;;;;;;;3.05;1.85;;;;;;;;;;5072611;28;20033;-74
2021/10/18 02:07:08;;;;;;;1.38;1.30;;;;;;;;;;5073105;28;20119;-74
2021/10/18 02:09:33;;;;;;;3.45;1.73;;;;;;;;;;5073037;28;20037;-74
2021/10/18 02:11:59;;;;;;;3.05;2.85;;;;;;;;;;5072427;28;20036;-75
2021/10/18 02:14:24;;;;;;;1.92;1.80;;;;;;;;;;5072935;28;20131;-75
2021/10/18 02:16:50;;;;;;;9.80;2.88;;;;;;;;;;5054745;28;20039;-75
2021/10/18 02:19:15;;;;;;;3.20;1.85;;;;;;;;;;5072623;28;20078;-76
2021/10/18 02:21:40;;;;;;;7.35;4.30;;;;;;;;;;5073926;28;20410;-75
2021/10/18 02:24:06;;;;;;;2.03;1.88;;;;;;;;;;5073573;28;20119;-78
2021/10/18 02:26:31;;;;;;;2.17;1.95;;;;;;;;;;5072311;28;20028;-77
2021/10/18 02:28:58;;;;;;;2.65;2.05;;;;;;;;;;5072521;28;20033;-77
2021/10/18 02:31:23;;;;;;;1.90;1.80;;;;;;;;;;5072924;28;20139;-75
2021/10/18 02:33:49;;;;;;;1.90;1.80;;;;;;;;;;5071945;28;20580;-75
2021/10/18 02:36:14;;;;;;;2.38;1.73;;;;;;;;;;5072643;28;20032;-77
2021/10/18 02:38:39;;;;;;;1.75;1.65;;;;;;;;;;5072707;28;20131;-75
2021/10/18 02:41:06;;;;;;;1.48;1.38;;;;;;;;;;5054298;28;20127;-75
2021/10/18 02:43:31;;;;;;;2.70;1.58;;;;;;;;;;5054851;28;20491;-75
2021/10/18 02:45:57;;;;;;;2.67;1.80;;;;;;;;;;5072310;28;20031;-78
2021/10/18 02:48:23;;;;;;;5.18;2.20;;;;;;;;;;5071942;28;20041;-76
2021/10/18 02:50:48;;;;;;;2.92;2.72;;;;;;;;;;5072018;28;20032;-75
2021/10/18 02:53:14;;;;;;;1.70;1.60;;;;;;;;;;5072347;28;20146;-76
2021/10/18 02:55:39;;;;;;;4.13;1.67;;;;;;;;;;5071399;28;20051;-75
2021/10/18 02:58:05;;;;;;;1.98;1.88;;;;;;;;;;5071846;28;20036;-77
2021/10/18 03:00:30;;;;;;;2.63;1.48;;;;;;;;;;5072023;28;20040;-77
2021/10/18 03:02:56;;;;;;;3.65;2.90;;;;;;;;;;5071517;28;20460;-76
2021/10/18 03:05:22;;;;;;;1.52;1.42;;;;;;;;;;5074279;28;20024;-75
2021/10/18 03:07:51;;;;;;;2.95;2.83;;;;;;;;;;5054149;28;20029;-76
2021/10/18 03:10:17;;;;;;;3.42;3.28;;;;;;;;;;5053230;28;20024;-78
2021/10/18 03:12:43;;;;;;;1.70;1.63;;;;;;;;;;5054063;28;20038;-76
2021/10/18 03:15:08;;;;;;;1.90;1.80;;;;;;;;;;5071992;28;20032;-77
2021/10/18 03:17:34;;;;;;;1.38;1.38;;;;;;;;;;5071394;28;20606;-76
2021/10/18 03:19:59;;;;;;;1.67;1.58;;;;;;;;;;5071719;28;20036;-76
2021/10/18 03:22:25;;;;;;;1.73;1.73;;;;;;;;;;5071864;28;20454;-77
2021/10/18 03:24:50;;;;;;;1.65;1.55;;;;;;;;;;5070840;28;20509;-77
2021/10/18 03:27:17;;;;;;;1.77;1.67;;;;;;;;;;5053800;28;20029;-77
2021/10/18 03:29:42;;;;;;;1.75;1.65;;;;;;;;;;5071517;28;20033;-77
2021/10/18 03:32:08;;;;;;;3.30;2.03;;;;;;;;;;5070727;28;20086;-75
2021/10/18 03:34:34;;;;;;;2.05;1.95;;;;;;;;;;5071025;28;20049;-75
2021/10/18 03:36:59;;;;;;;1.50;1.50;;;;;;;;;;5071083;28;20033;-74
2021/10/18 03:39:24;;;;;;;1.70;1.63;;;;;;;;;;5071106;28;20040;-76
2021/10/18 03:41:50;;;;;;;1.25;1.25;;;;;;;;;;5070161;28;20040;-76
2021/10/18 03:44:15;;;;;;;2.00;1.80;;;;;;;;;;5071257;28;20112;-77
2021/10/18 03:46:40;;;;;;;2.42;1.58;;;;;;;;;;5070966;28;20509;-76
2021/10/18 03:49:06;;;;;;;1.40;1.40;;;;;;;;;;5070677;28;20071;-75
2021/10/18 03:51:32;;;;;;;1.45;1.45;;;;;;;;;;5071157;28;20028;-75
2021/10/18 03:53:57;;;;;;;1.95;1.70;;;;;;;;;;5053021;28;20071;-75
2021/10/18 03:56:23;;;;;;;1.70;1.60;;;;;;;;;;5070878;28;20063;-75
2021/10/18 03:58:48;;;;;;;1.52;1.48;;;;;;;;;;5053184;28;20028;-75
2021/10/18 04:01:13;;;;;;;3.00;2.80;;;;;;;;;;5070954;28;20122;-77
2021/10/18 04:03:39;;;;;;;1.60;1.50;;;;;;;;;;5070465;28;20032;-74
2021/10/18 04:06:04;;;;;;;1.40;1.40;;;;;;;;;;5071164;28;20024;-76
2021/10/18 04:08:33;;;;;;;1.80;1.70;;;;;;;;;;5070966;28;20449;-77
2021/10/18 04:11:00;;;;;;;1.35;1.35;;;;;;;;;;5069886;28;20040;-75
2021/10/18 04:13:26;;;;;;;1.55;1.50;;;;;;;;;;5053321;28;20029;-74
2021/10/18 04:15:51;;;;;;;1.75;1.73;;;;;;;;;;5070574;28;20542;-76
2021/10/18 04:18:18;;;;;;;2.13;2.03;;;;;;;;;;5051840;28;20521;-75
2021/10/18 04:20:44;;;;;;;2.00;1.90;;;;;;;;;;5070829;28;20040;-75
2021/10/18 04:23:09;;;;;;;1.48;1.48;;;;;;;;;;5070535;28;20500;-75
2021/10/18 04:25:34;;;;;;;1.52;1.50;;;;;;;;;;5057629;28;20064;-76
2021/10/18 04:28:00;;;;;;;1.45;1.45;;;;;;;;;;5050547;28;20036;-76
2021/10/18 04:30:25;;;;;;;1.88;1.77;;;;;;;;;;5050871;28;20037;-76
2021/10/18 04:32:51;;;;;;;1.75;1.75;;;;;;;;;;5054006;28;20036;-77
2021/10/18 04:35:16;;;;;;;1.90;1.80;;;;;;;;;;5090769;28;20795;-77
2021/10/18 04:37:41;;;;;;;1.60;1.60;;;;;;;;;;5090785;28;20032;-77
2021/10/18 04:40:09;;;;;;;1.60;1.60;;;;;;;;;;5090481;28;20101;-75
2021/10/18 04:42:34;;;;;;;2.28;1.58;;;;;;;;;;5090680;28;20044;-79
2021/10/18 04:44:59;;;;;;;1.90;1.80;;;;;;;;;;5072815;28;20040;-78
2021/10/18 04:47:25;;;;;;;1.95;1.85;;;;;;;;;;5090598;28;20034;-78
2021/10/18 04:49:50;;;;;;;1.98;1.75;;;;;;;;;;5090666;28;20118;-78
2021/10/18 04:52:16;;;;;;;1.63;1.63;;;;;;;;;;5090748;28;20845;-75
2021/10/18 04:54:41;;;;;;;1.65;1.55;;;;;;;;;;5092618;28;20485;-76
2021/10/18 04:57:07;;;;;;;1.80;1.80;;;;;;;;;;5094482;28;20526;-77
2021/10/18 04:59:32;;;;;;;2.25;2.13;;;;;;;;;;5094269;28;20070;-78
2021/10/18 05:01:57;;;;;;;1.67;1.67;;;;;;;;;;5093395;28;20040;-78
2021/10/18 05:04:23;;;;;;;4.75;4.45;;;;;;;;;;5094590;28;20481;-78
2021/10/18 05:06:48;;;;;;;2.05;1.95;;;;;;;;;;5094250;28;20119;-78
2021/10/18 05:09:14;;;;;;;1.85;1.75;;;;;;;;;;5093699;28;20489;-78
2021/10/18 05:11:40;;;;;;;1.73;1.63;;;;;;;;;;5076032;28;20032;-79
2021/10/18 05:14:06;;;;;;;1.83;1.73;;;;;;;;;;5076066;28;20031;-80
2021/10/18 05:16:32;;;;;;;1.77;1.50;;;;;;;;;;5093939;28;20032;-78
2021/10/18 05:18:57;;;;;;;2.13;2.03;;;;;;;;;;5095194;28;20031;-78
2021/10/18 05:21:23;;;;;;;1.55;1.48;;;;;;;;;;5096671;28;20042;-76
2021/10/18 05:23:48;;;;;;;1.75;1.67;;;;;;;;;;5093789;28;20107;-77
2021/10/18 05:26:14;;;;;;;1.70;1.60;;;;;;;;;;5075145;28;20523;-78
2021/10/18 05:28:39;;;;;;;4.57;4.38;;;;;;;;;;5073063;28;20465;-77
2021/10/18 05:31:04;;;;;;;1.65;1.55;;;;;;;;;;5072962;28;20162;-77
2021/10/18 05:33:30;;;;;;;1.80;1.67;;;;;;;;;;5055485;28;20462;-77
2021/10/18 05:35:55;;;;;;;2.50;2.40;;;;;;;;;;5073680;28;20401;-78
2021/10/18 05:38:21;;;;;;;1.30;1.30;;;;;;;;;;5072876;28;20078;-77
2021/10/18 05:40:51;;;;;;;1.40;1.40;;;;;;;;;;5056079;28;20076;-77
2021/10/18 05:43:17;;;;;;;1.48;1.48;;;;;;;;;;5073626;28;20127;-78
2021/10/18 05:45:42;;;;;;;1.52;1.42;;;;;;;;;;5072913;28;20115;-78
2021/10/18 05:48:08;;;;;;;1.33;1.30;;;;;;;;;;5073257;28;20119;-78
2021/10/18 05:50:38;;;;;;;1.42;1.20;;;;;;;;;;5073158;28;20040;-77
2021/10/18 05:53:04;;;;;;;1.23;1.23;;;;;;;;;;5054571;28;20035;-77
2021/10/18 05:55:29;;;;;;;1.30;1.30;;;;;;;;;;5072647;28;20036;-77
2021/10/18 05:58:01;;;;;;;1.42;1.42;;;;;;;;;;5073362;28;20440;-77
2021/10/18 06:00:27;;;;;;;2.05;1.55;;;;;;;;;;5072685;28;20032;-78
2021/10/18 06:02:53;;;;;;;1.90;1.90;;;;;;;;;;5074034;28;20387;-77
2021/10/18 06:05:20;;;;;;;1.35;1.35;;;;;;;;;;5072640;28;20032;-77
2021/10/18 06:07:46;;;;;;;1.42;1.42;;;;;;;;;;5072714;28;20032;-77
2021/10/18 06:10:13;;;;;;;1.42;1.42;;;;;;;;;;5055499;28;20064;-76
2021/10/18 06:12:42;;;;;;;1.17;1.17;;;;;;;;;;5073329;28;20041;-77
2021/10/18 06:15:09;;;;;;;3.35;3.25;;;;;;;;;;5073022;28;20029;-78
2021/10/18 06:17:35;;;;;;;1.23;1.23;;;;;;;;;;5073284;28;20054;-78
2021/10/18 06:20:03;;;;;;;1.52;1.50;;;;;;;;;;5073011;28;20489;-77
2021/10/18 06:22:28;;;;;;;1.45;1.10;;;;;;;;;;5073326;28;20040;-79
2021/10/18 06:24:54;;;;;;;1.83;1.83;;;;;;;;;;5067339;28;20044;-78
2021/10/18 06:27:21;;;;;;;1.30;1.30;;;;;;;;;;5074488;28;20039;-77
2021/10/18 06:29:46;;;;;;;0.98;0.98;;;;;;;;;;5055255;28;20025;-77
2021/10/18 06:32:12;;;;;;;1.90;1.90;;;;;;;;;;5073345;28;20039;-77
2021/10/18 06:34:37;;;;;;;1.58;1.52;;;;;;;;;;5073908;28;20063;-79
2021/10/18 06:37:03;;;;;;;3.15;2.22;;;;;;;;;;5073680;28;20033;-78
2021/10/18 06:39:28;;;;;;;1.27;1.27;;;;;;;;;;5055901;28;20044;-78
2021/10/18 06:41:54;;;;;;;2.38;2.25;;;;;;;;;;5089267;28;20059;-77
2021/10/18 06:44:19;;;;;;;1.08;1.08;;;;;;;;;;5091785;28;20039;-78
2021/10/18 06:46:44;;;;;;;1.17;1.17;;;;;;;;;;5091994;28;20048;-79
2021/10/18 06:49:10;;;;;;;2.47;2.38;;;;;;;;;;5075656;28;20037;-77
2021/10/18 06:51:44;;;;;;;2.13;2.05;;;;;;;;;;5074030;28;20493;-78
2021/10/18 06:54:09;;;;;;;2.25;2.17;;;;;;;;;;5055323;28;20055;-78
2021/10/18 06:56:35;;;;;;;1.17;1.17;;;;;;;;;;5072362;28;20032;-77
2021/10/18 06:59:00;;;;;;;1.63;1.52;;;;;;;;;;5054169;28;20029;-77
2021/10/18 07:01:25;;;;;;;1.40;1.40;;;;;;;;;;5071709;28;20037;-79
2021/10/18 07:03:51;;;;;;;1.17;1.17;;;;;;;;;;5071990;28;20115;-76
2021/10/18 07:06:16;;;;;;;1.50;1.50;;;;;;;;;;5054138;28;20032;-78
2021/10/18 07:08:42;;;;;;;3.80;1.30;;;;;;;;;;5071668;28;20033;-75
2021/10/18 07:11:07;;;;;;;2.22;2.13;;;;;;;;;;5072437;28;20123;-78
2021/10/18 07:13:32;;;;;;;1.85;1.85;;;;;;;;;;5071602;28;20044;-77
2021/10/18 07:15:59;;;;;;;1.33;1.33;;;;;;;;;;5071079;28;20035;-78
2021/10/18 07:18:25;;;;;;;1.98;1.95;;;;;;;;;;5071298;28;20033;-77
2021/10/18 07:20:50;;;;;;;2.42;2.33;;;;;;;;;;5071887;28;20043;-76
2021/10/18 07:23:16;;;;;;;2.00;1.90;;;;;;;;;;5071009;28;20044;-79
2021/10/18 07:25:43;;;;;;;2.42;2.33;;;;;;;;;;5071300;28;20036;-77
2021/10/18 07:28:09;;;;;;;2.25;2.08;;;;;;;;;;5053756;28;20035;-78
2021/10/18 07:30:36;;;;;;;1.38;1.38;;;;;;;;;;5071380;28;20032;-78
2021/10/18 07:33:02;;;;;;;1.17;1.08;;;;;;;;;;5071115;28;20147;-77
2021/10/18 07:35:33;;;;;;;1.20;1.10;;;;;;;;;;5071680;28;20102;-78
2021/10/18 07:37:59;;;;;;;2.47;2.35;;;;;;;;;;5070809;28;20101;-80
2021/10/18 07:40:29;;;;;;;2.08;2.00;;;;;;;;;;5071752;28;20036;-78
2021/10/18 07:42:55;;;;;;;2.15;1.90;;;;;;;;;;5071680;28;20036;-79
2021/10/18 07:45:21;;;;;;;0.98;0.98;;;;;;;;;;5070759;28;20109;-78
2021/10/18 07:47:47;;;;;;;1.27;1.27;;;;;;;;;;5071426;28;20037;-80
2021/10/18 07:50:13;;;;;;;2.08;1.98;;;;;;;;;;5071241;28;20043;-78
2021/10/18 07:52:40;;;;;;;2.55;2.45;;;;;;;;;;5071213;28;20486;-79
2021/10/18 07:55:13;;;;;;;2.70;1.58;;;;;;;;;;5071349;28;20029;-78
2021/10/18 07:57:43;;;;;;;1.15;1.15;;;;;;;;;;5071236;28;20040;-80
2021/10/18 08:00:09;;;;;;;3.03;2.92;;;;;;;;;;5052693;28;20047;-80
2021/10/18 08:02:35;;;;;;;3.53;3.35;;;;;;;;;;5071001;28;20440;-78
2021/10/18 08:05:01;;;;;;;1.17;1.17;;;;;;;;;;5071132;28;20058;-77
2021/10/18 08:07:35;;;;;;;2.40;2.30;;;;;;;;;;5070688;28;20032;-77
2021/10/18 08:10:00;;;;;;;1.20;1.20;;;;;;;;;;5052991;28;20383;-77
2021/10/18 08:12:26;;;;;;;2.28;2.17;;;;;;;;;;5071733;28;20162;-76
2021/10/18 08:14:52;;;;;;;2.25;2.10;;;;;;;;;;5052441;28;20048;-77
2021/10/18 08:17:17;;;;;;;2.20;2.10;;;;;;;;;;5071120;28;20033;-78
2021/10/18 08:19:43;;;;;;;3.88;3.72;;;;;;;;;;5070660;28;20106;-77
2021/10/18 08:22:08;;;;;;;2.70;1.98;;;;;;;;;;5070660;28;20505;-86
2021/10/18 08:24:34;;;;;;;2.17;2.08;;;;;;;;;;5070662;28;20048;-78
2021/10/18 08:26:59;;;;;;;2.47;2.38;;;;;;;;;;5052101;28;20489;-77
2021/10/18 08:29:24;;;;;;;2.08;1.98;;;;;;;;;;5073410;28;20037;-77
2021/10/18 08:31:50;;;;;;;2.22;2.13;;;;;;;;;;5074741;28;20040;-77
2021/10/18 08:34:15;;;;;;;1.83;1.80;;;;;;;;;;5074600;28;20060;-77
2021/10/18 08:36:41;;;;;;;1.90;1.85;;;;;;;;;;5074106;28;20040;-78
2021/10/18 08:41:43;;;;;;;1.40;1.40;;;;;;;;;;5074356;28;20481;-77
2021/10/18 08:44:17;;;;;;;1.10;1.00;;;;;;;;;;5074358;28;20028;-78
2021/10/18 08:46:47;;;;;;;2.05;1.95;;;;;;;;;;5056539;28;20032;-78
2021/10/18 08:49:12;;;;;;;2.25;2.15;;;;;;;;;;5074671;28;20070;-77
2021/10/18 08:51:38;;;;;;;1.95;1.88;;;;;;;;;;5073603;28;20041;-76
2021/10/18 08:54:07;;;;;;;1.00;1.00;;;;;;;;;;5074187;28;20044;-77
2021/10/18 08:56:33;;;;;;;2.65;2.55;;;;;;;;;;5074945;28;20032;-76
2021/10/18 08:58:59;;;;;;;2.13;2.03;;;;;;;;;;5074741;28;20039;-80
2021/10/18 09:01:43;;;;;;;2.08;1.98;;;;;;;;;;5074416;28;20036;-77
2021/10/18 09:04:32;;;;;;;2.40;2.30;;;;;;;;;;5074145;28;20036;-77
2021/10/18 09:07:01;;;;;;;2.03;1.95;;;;;;;;;;5054495;28;20493;-77
2021/10/18 09:09:28;;;;;;;2.25;2.13;;;;;;;;;;5074185;28;20140;-78
2021/10/18 09:11:58;;;;;;;1.30;1.20;;;;;;;;;;5055370;28;20048;-77
2021/10/18 09:14:24;;;;;;;2.47;2.00;;;;;;;;;;5072232;28;20033;-77
2021/10/18 09:16:50;;;;;;;1.10;1.10;;;;;;;;;;5072168;28;20036;-76
2021/10/18 09:19:16;;;;;;;1.85;1.75;;;;;;;;;;5053066;28;20032;-77
2021/10/18 09:21:43;;;;;;;2.15;2.05;;;;;;;;;;5072509;28;20044;-78
2021/10/18 09:24:12;;;;;;;1.13;1.13;;;;;;;;;;5071757;28;20077;-78
2021/10/18 09:26:40;;;;;;;2.20;2.10;;;;;;;;;;5073175;28;20074;-77
2021/10/18 09:29:14;;;;;;;2.25;2.15;;;;;;;;;;5073351;28;20036;-76
2021/10/18 09:31:42;;;;;;;1.95;1.85;;;;;;;;;;5073467;28;20186;-77
2021/10/18 09:34:17;;;;;;;1.35;1.35;;;;;;;;;;5073836;28;20060;-72
2021/10/18 09:36:44;;;;;;;1.30;1.30;;;;;;;;;;5073024;28;20123;-73
2021/10/18 09:39:22;;;;;;;5.68;2.08;;;;;;;;;;5055658;28;20512;-74
2021/10/18 09:42:02;;;;;;;2.00;1.90;;;;;;;;;;5054983;28;20067;-72
2021/10/18 09:45:24;;;;;;;1.33;1.27;;;;;;;;;;5054977;28;20040;-74
2021/10/18 09:48:16;;;;;;;2.33;2.22;;;;;;;;;;5072059;28;20037;-72
2021/10/18 10:53:11;;;;;;;2.75;2.55;;;;;;;;;;5071109;28;20402;-75
2021/10/18 10:55:37;;;;;;;1.10;1.10;;;;;;;;;;5072230;28;20127;-75
2021/10/18 10:58:23;;;;;;;2.17;2.08;;;;;;;;;;5072308;28;20182;-77
2021/10/18 11:00:49;;;;;;;1.85;1.83;;;;;;;;;;5071945;28;20126;-78
2021/10/18 11:03:20;;;;;;;3.50;3.30;;;;;;;;;;5071656;28;20892;-79
2021/10/18 11:06:08;;;;;;;1.17;1.17;;;;;;;;;;5071717;28;20449;-78
2021/10/18 11:08:34;;;;;;;5.78;1.65;;;;;;;;;;5071301;28;20044;-80
2021/10/18 11:11:20;;;;;;;4.65;4.35;;;;;;;;;;5053301;28;20367;-78
2021/10/18 11:13:54;;;;;;;1.95;1.85;;;;;;;;;;5053971;28;20740;-78
2021/10/18 11:16:27;;;;;;;1.75;1.70;;;;;;;;;;5053570;28;20136;-77
2021/10/18 11:18:59;;;;;;;2.10;1.95;;;;;;;;;;5071391;28;20112;-76
2021/10/18 11:21:27;;;;;;;3.63;3.42;;;;;;;;;;5071693;28;20040;-79
2021/10/18 11:24:01;;;;;;;1.38;1.33;;;;;;;;;;5053745;28;20029;-78
2021/10/18 11:26:30;;;;;;;2.30;2.20;;;;;;;;;;5045885;28;20029;-79
2021/10/18 11:28:58;;;;;;;1.80;1.70;;;;;;;;;;5051509;28;20120;-79
2021/10/18 11:31:36;;;;;;;1.83;1.67;;;;;;;;;;5051519;28;20041;-77
2021/10/18 11:34:20;;;;;;;1.90;1.80;;;;;;;;;;5050310;28;20444;-78
2021/10/18 11:36:49;;;;;;;1.98;1.88;;;;;;;;;;5051633;28;20032;-77
2021/10/18 11:39:24;;;;;;;1.90;1.80;;;;;;;;;;5051361;28;20036;-78
2021/10/18 11:42:13;;;;;;;3.47;3.17;;;;;;;;;;5032942;28;20036;-78
2021/10/18 11:44:56;;;;;;;1.90;1.80;;;;;;;;;;5051530;28;20049;-77
2021/10/18 11:47:35;;;;;;;2.25;2.15;;;;;;;;;;5051497;28;20543;-80
2021/10/18 11:50:20;;;;;;;1.83;1.77;;;;;;;;;;5051002;28;20127;-79
2021/10/18 11:52:57;;;;;;;3.00;1.75;;;;;;;;;;5055240;28;20033;-77
2021/10/18 11:55:26;;;;;;;1.58;1.58;;;;;;;;;;5047259;28;20063;-80
2021/10/18 11:57:53;;;;;;;2.00;1.98;;;;;;;;;;5067505;28;20029;-78
2021/10/18 12:00:29;;;;;;;1.88;1.83;;;;;;;;;;5065604;28;20052;-77
2021/10/18 12:02:59;;;;;;;;;;;;;;;;;;5056869;28;20044;-78
2021/10/18 12:05:27;;;;;;;2.10;2.00;;;;;;;;;;5052349;28;20365;-80
2021/10/18 12:07:54;;;;;;;1.80;1.70;;;;;;;;;;5052152;28;20124;-79
2021/10/18 12:10:28;;;;;;;1.50;1.40;;;;;;;;;;5051548;28;20485;-78
2021/10/18 12:13:13;;;;;;;1.88;1.77;;;;;;;;;;5051272;28;20037;-80
2021/10/18 12:16:03;;;;;;;1.30;1.30;;;;;;;;;;5050859;28;20544;-77
2021/10/18 12:18:38;;;;;;;8.73;2.83;;;;;;;;;;5032393;28;20036;-79
2021/10/18 12:21:29;;;;;;;1.90;1.80;;;;;;;;;;5034770;28;20067;-78
2021/10/18 12:24:11;;;;;;;1.90;1.90;;;;;;;;;;5042137;28;20052;-77
2021/10/18 12:26:46;;;;;;;1.80;1.70;;;;;;;;;;5050161;28;20037;-77
2021/10/18 12:29:15;;;;;;;3.08;1.90;;;;;;;;;;5032972;28;20040;-79
2021/10/18 12:31:40;;;;;;;2.17;2.08;;;;;;;;;;5051514;28;20037;-78
2021/10/18 12:34:13;;;;;;;1.98;1.90;;;;;;;;;;5031985;28;20071;-79
2021/10/18 12:37:05;;;;;;;3.30;3.10;;;;;;;;;;5050774;28;20072;-77
2021/10/18 12:39:50;;;;;;;1.45;1.45;;;;;;;;;;5035948;28;20085;-82
2021/10/18 12:42:24;;;;;;;1.98;1.88;;;;;;;;;;5053512;28;20037;-77
2021/10/18 12:45:08;;;;;;;3.38;3.28;;;;;;;;;;5059483;28;20156;-81
2021/10/18 12:47:36;;;;;;;1.75;1.75;;;;;;;;;;5052066;28;20098;-79
2021/10/18 12:50:23;;;;;;;1.98;1.88;;;;;;;;;;5050807;28;20045;-77
2021/10/18 12:53:00;;;;;;;2.17;2.10;;;;;;;;;;5051349;28;20039;-77
2021/10/18 12:55:29;;;;;;;2.25;2.15;;;;;;;;;;5032360;28;20036;-80
2021/10/18 12:57:59;;;;;;;1.95;1.92;;;;;;;;;;5051568;28;20037;-79
2021/10/18 13:00:31;;;;;;;2.15;2.05;;;;;;;;;;5051431;28;20041;-79
2021/10/18 13:03:08;;;;;;;3.15;3.05;;;;;;;;;;5032284;28;20437;-76
2021/10/18 13:05:47;;;;;;;1.98;1.90;;;;;;;;;;5050572;28;20198;-78
2021/10/18 13:08:15;;;;;;;2.03;1.95;;;;;;;;;;5050585;28;20040;-77
2021/10/18 13:10:45;;;;;;;2.15;2.05;;;;;;;;;;5049672;28;20045;-75
2021/10/18 13:13:12;;;;;;;;;;;;;;;;;;5050772;28;20124;-75
2021/10/18 13:15:39;;;;;;;2.47;2.38;;;;;;;;;;5033885;28;19913;-76
2021/10/18 13:18:09;;;;;;;1.42;1.40;;;;;;;;;;5053957;28;20068;-77
2021/10/18 13:20:35;;;;;;;2.45;1.30;;;;;;;;;;5054219;28;20041;-79
2021/10/18 13:23:02;;;;;;;1.77;1.77;;;;;;;;;;5054195;28;20489;-77
2021/10/18 13:25:33;;;;;;;1.30;1.20;;;;;;;;;;5035405;28;20033;-76
2021/10/18 13:27:59;;;;;;;2.08;1.98;;;;;;;;;;5053363;28;20072;-77
2021/10/18 13:30:26;;;;;;;1.98;1.75;;;;;;;;;;5053505;28;20486;-80
2021/10/18 13:32:53;;;;;;;1.38;1.30;;;;;;;;;;5053192;28;20084;-78
2021/10/18 13:35:19;;;;;;;2.33;2.25;;;;;;;;;;5053224;28;20045;-76
2021/10/18 13:37:46;;;;;;;1.67;1.58;;;;;;;;;;5035512;28;20182;-78
2021/10/18 13:40:14;;;;;;;1.15;1.08;;;;;;;;;;5052884;28;20037;-77
2021/10/18 13:42:41;;;;;;;1.00;1.00;;;;;;;;;;5053489;28;20055;-76
2021/10/18 13:45:08;;;;;;;1.17;1.17;;;;;;;;;;5053068;28;20482;-79
2021/10/18 13:47:34;;;;;;;1.00;1.00;;;;;;;;;;5035022;28;20713;-79
2021/10/18 13:49:59;;;;;;;1.50;1.50;;;;;;;;;;5052955;28;20051;-78
2021/10/18 13:52:25;;;;;;;2.13;2.03;;;;;;;;;;5053630;28;20032;-79
2021/10/18 13:54:51;;;;;;;2.05;1.98;;;;;;;;;;5035106;28;20040;-77
2021/10/18 13:57:18;;;;;;;1.13;1.10;;;;;;;;;;5053426;28;20095;-79
2021/10/18 13:59:45;;;;;;;2.03;1.92;;;;;;;;;;5058437;28;20035;-78
2021/10/18 14:02:14;;;;;;;1.10;1.10;;;;;;;;;;5093700;28;20472;-78
2021/10/18 14:04:40;;;;;;;2.25;1.00;;;;;;;;;;5075278;28;20032;-77
2021/10/18 14:07:06;;;;;;;2.30;2.20;;;;;;;;;;5093520;28;20036;-80
2021/10/18 14:09:31;;;;;;;2.47;2.38;;;;;;;;;;5093301;28;20111;-78
2021/10/18 14:11:57;;;;;;;1.98;1.88;;;;;;;;;;5093786;28;20036;-78
2021/10/18 14:14:22;;;;;;;1.20;1.20;;;;;;;;;;5085909;28;20122;-81
2021/10/18 14:16:48;;;;;;;2.30;2.20;;;;;;;;;;5058709;28;20032;-79
2021/10/18 14:19:13;;;;;;;1.98;1.88;;;;;;;;;;5065735;28;20058;-80
2021/10/18 14:21:39;;;;;;;1.77;1.77;;;;;;;;;;5058949;28;20091;-78
2021/10/18 14:24:06;;;;;;;4.25;3.88;;;;;;;;;;5073176;28;20338;-77
2021/10/18 14:26:32;;;;;;;2.30;2.20;;;;;;;;;;5092829;28;20120;-76
2021/10/18 14:28:57;;;;;;;2.08;2.00;;;;;;;;;;5093426;28;20110;-79
2021/10/18 14:31:26;;;;;;;2.08;1.98;;;;;;;;;;5075161;28;20035;-77
2021/10/18 14:33:51;;;;;;;2.13;1.35;;;;;;;;;;5074645;28;20095;-76
2021/10/18 14:36:19;;;;;;;2.90;2.75;;;;;;;;;;5058208;28;20514;-77
2021/10/18 14:38:51;;;;;;;2.85;2.00;;;;;;;;;;5092873;28;20044;-76
2021/10/18 14:41:17;;;;;;;1.85;1.75;;;;;;;;;;5074539;28;20043;-76
2021/10/18 14:43:44;;;;;;;2.40;2.30;;;;;;;;;;5092828;28;20413;-79
2021/10/18 14:46:09;;;;;;;2.17;2.08;;;;;;;;;;5092856;28;20036;-77
2021/10/18 14:48:35;;;;;;;1.98;1.90;;;;;;;;;;5092788;28;20032;-78
2021/10/18 14:51:00;;;;;;;3.00;2.90;;;;;;;;;;5092539;28;20461;-78
2021/10/18 14:53:27;;;;;;;2.20;2.13;;;;;;;;;;5093060;28;20063;-76
2021/10/18 14:55:53;;;;;;;2.67;2.58;;;;;;;;;;5092336;28;20028;-77
2021/10/18 14:58:19;;;;;;;2.25;1.98;;;;;;;;;;5074713;28;20047;-78
2021/10/18 15:00:44;;;;;;;2.58;2.38;;;;;;;;;;5092429;28;20035;-79
2021/10/18 15:03:10;;;;;;;2.40;2.30;;;;;;;;;;5092730;28;20115;-77
2021/10/18 15:05:35;;;;;;;2.17;2.08;;;;;;;;;;5092470;28;20020;-79
2021/10/18 15:08:01;;;;;;;2.25;2.15;;;;;;;;;;5092930;28;20485;-77
2021/10/18 15:10:27;;;;;;;1.85;1.85;;;;;;;;;;5092936;28;20119;-77
2021/10/18 15:12:55;;;;;;;3.08;2.97;;;;;;;;;;5092661;28;20035;-76
2021/10/18 15:15:25;;;;;;;2.83;2.63;;;;;;;;;;5093732;28;20032;-77
2021/10/18 15:17:52;;;;;;;2.17;2.08;;;;;;;;;;5092471;28;20497;-78
2021/10/18 15:20:17;;;;;;;1.33;1.33;;;;;;;;;;5092595;28;20077;-77
2021/10/18 15:22:44;;;;;;;1.95;1.85;;;;;;;;;;5092672;28;20067;-79
2021/10/18 15:25:11;;;;;;;2.08;1.98;;;;;;;;;;5057643;28;20418;-78
2021/10/18 15:27:38;;;;;;;4.22;4.03;;;;;;;;;;5092962;28;20450;-81
2021/10/18 15:30:05;;;;;;;1.10;1.10;;;;;;;;;;5092579;28;20062;-79
2021/10/18 15:32:30;;;;;;;1.17;1.17;;;;;;;;;;5092957;28;20032;-79
2021/10/18 15:34:56;;;;;;;1.98;1.88;;;;;;;;;;5093101;28;20153;-79
2021/10/18 15:37:22;;;;;;;3.58;3.30;;;;;;;;;;5092558;28;20032;-80
2021/10/18 15:39:48;;;;;;;2.38;2.25;;;;;;;;;;5093999;28;20036;-79
2021/10/18 15:42:13;;;;;;;1.48;1.38;;;;;;;;;;5096175;28;20035;-79
2021/10/18 15:44:38;;;;;;;2.15;2.05;;;;;;;;;;5092226;28;20062;-77
2021/10/18 15:47:06;;;;;;;4.22;2.38;;;;;;;;;;5092744;28;20518;-81
2021/10/18 15:49:31;;;;;;;3.42;2.40;;;;;;;;;;5092437;28;20485;-80
2021/10/18 15:51:57;;;;;;;2.58;2.22;;;;;;;;;;5092375;28;20038;-79